createdAt,value
2022-08-12T00:00:33.684Z,4.12
2022-08-12T00:03:21.022Z,4.53
2022-08-12T00:06:07.769Z,4.25
2022-08-12T00:08:56.289Z,5.03
2022-08-12T00:11:42.807Z,4.57
2022-08-12T00:14:29.338Z,4.20
2022-08-12T00:17:15.334Z,4.60
2022-08-12T00:20:01.826Z,4.12
2022-08-12T00:22:59.415Z,4.15
2022-08-12T00:26:22.294Z,3.87
2022-08-12T00:29:07.395Z,4.35
2022-08-12T00:31:53.470Z,4.47
2022-08-12T00:37:26.120Z,4.65
2022-08-12T00:40:14.507Z,4.32
2022-08-12T00:42:42.707Z,4.28
2022-08-12T00:45:10.421Z,4.62
2022-08-12T00:47:37.864Z,4.60
2022-08-12T00:50:06.939Z,4.20
2022-08-12T00:52:35.200Z,4.30
2022-08-12T00:55:03.304Z,4.75
2022-08-12T00:57:34.489Z,4.20
2022-08-12T01:00:10.869Z,4.93
2022-08-12T01:02:42.765Z,4.87
2022-08-12T01:05:37.556Z,4.72
2022-08-12T01:08:24.462Z,4.20
2022-08-12T01:11:10.560Z,4.70
2022-08-12T01:13:44.450Z,4.57
2022-08-12T01:16:12.144Z,4.45
2022-08-12T01:18:40.205Z,4.75
2022-08-12T01:21:29.007Z,4.30
2022-08-12T01:24:30.391Z,5.15
2022-08-12T01:26:59.766Z,4.35
2022-08-12T01:29:32.673Z,4.72
2022-08-12T01:32:06.253Z,4.82
2022-08-12T01:34:37.415Z,5.07
2022-08-12T01:37:07.606Z,4.50
2022-08-12T01:40:33.650Z,4.68
2022-08-12T01:42:51.898Z,4.50
2022-08-12T01:45:22.914Z,4.93
2022-08-12T01:48:35.398Z,4.30
2022-08-12T01:51:24.404Z,4.85
2022-08-12T01:54:12.513Z,4.25
2022-08-12T01:56:49.914Z,4.60
2022-08-12T01:59:59.113Z,4.57
2022-08-12T02:02:29.909Z,5.00
2022-08-12T02:05:49.544Z,4.90
2022-08-12T02:08:54.564Z,4.90
2022-08-12T02:11:29.424Z,4.90
2022-08-12T02:14:10.999Z,4.53
2022-08-12T02:17:01.964Z,4.93
2022-08-12T02:20:00.302Z,4.95
2022-08-12T02:22:38.532Z,4.45
2022-08-12T02:25:16.664Z,4.47
2022-08-12T02:27:46.493Z,4.43
2022-08-12T02:30:16.079Z,4.40
2022-08-12T02:32:44.529Z,4.28
2022-08-12T02:35:15.031Z,4.72
2022-08-12T02:37:43.318Z,4.62
2022-08-12T02:40:12.368Z,4.97
2022-08-12T02:42:46.694Z,4.80
2022-08-12T02:45:14.321Z,4.95
2022-08-12T02:48:00.107Z,4.50
2022-08-12T02:50:29.510Z,4.93
2022-08-12T02:52:56.859Z,5.22
2022-08-12T02:55:34.498Z,4.57
2022-08-12T02:58:12.435Z,4.85
2022-08-12T03:00:43.394Z,4.97
2022-08-12T03:03:12.847Z,4.50
2022-08-12T03:05:54.539Z,4.97
2022-08-12T03:08:32.201Z,5.68
2022-08-12T03:11:06.270Z,5.18
2022-08-12T03:13:45.836Z,5.65
2022-08-12T03:16:14.537Z,4.60
2022-08-12T03:18:46.023Z,4.68
2022-08-12T03:21:16.245Z,4.87
2022-08-12T03:23:44.765Z,4.47
2022-08-12T03:26:12.430Z,4.72
2022-08-12T03:28:54.154Z,4.90
2022-08-12T03:31:29.898Z,4.68
2022-08-12T03:34:08.313Z,5.40
2022-08-12T03:36:37.835Z,4.57
2022-08-12T03:39:18.704Z,5.15
2022-08-12T03:42:26.449Z,4.87
2022-08-12T03:45:31.316Z,5.00
2022-08-12T03:48:25.612Z,5.05
2022-08-12T03:51:11.898Z,5.12
2022-08-12T03:53:58.275Z,4.65
2022-08-12T03:59:30.448Z,5.22
2022-08-12T04:01:58.178Z,4.70
2022-08-12T04:04:28.531Z,5.30
2022-08-12T04:06:55.938Z,5.37
2022-08-12T04:09:23.312Z,4.90
2022-08-12T04:12:09.744Z,5.00
2022-08-12T04:14:38.022Z,4.82
2022-08-12T04:17:05.645Z,4.80
2022-08-12T04:19:33.201Z,5.10
2022-08-12T04:22:03.587Z,4.65
2022-08-12T04:24:35.641Z,5.20
2022-08-12T04:27:05.706Z,5.50
2022-08-12T04:30:31.075Z,4.85
2022-08-12T04:32:21.957Z,5.37
2022-08-12T04:34:50.551Z,4.62
2022-08-12T04:37:18.084Z,4.70
2022-08-12T04:39:45.636Z,5.35
2022-08-12T04:42:13.420Z,5.22
2022-08-12T04:44:42.141Z,4.90
2022-08-12T04:47:14.130Z,5.30
2022-08-12T04:49:41.831Z,5.72
2022-08-12T04:52:09.547Z,5.43
2022-08-12T04:54:37.724Z,5.12
2022-08-12T04:57:09.854Z,5.20
2022-08-12T04:59:46.781Z,5.15
2022-08-12T05:02:20.935Z,5.12
2022-08-12T05:04:53.446Z,5.57
2022-08-12T05:07:21.193Z,5.37
2022-08-12T05:10:01.851Z,5.53
2022-08-12T05:12:37.517Z,5.20
2022-08-12T05:15:16.875Z,4.75
2022-08-12T05:17:53.577Z,4.93
2022-08-12T05:20:22.711Z,4.90
2022-08-12T05:22:52.982Z,5.37
2022-08-12T05:25:24.645Z,6.25
2022-08-12T05:27:55.432Z,5.68
2022-08-12T05:30:27.603Z,5.07
2022-08-12T05:32:55.728Z,5.65
2022-08-12T05:35:27.950Z,5.82
2022-08-12T05:38:15.312Z,5.57
2022-08-12T05:40:42.966Z,5.00
2022-08-12T05:43:10.401Z,4.93
2022-08-12T05:45:42.881Z,4.03
2022-08-12T05:48:13.158Z,3.93
2022-08-12T05:50:41.254Z,4.03
2022-08-12T05:53:08.619Z,3.85
2022-08-12T05:55:37.195Z,4.00
2022-08-12T05:58:05.077Z,4.45
2022-08-12T06:00:32.452Z,4.37
2022-08-12T06:03:02.924Z,4.20
2022-08-12T06:05:43.071Z,4.22
2022-08-12T06:08:22.583Z,4.55
2022-08-12T06:10:50.375Z,4.40
2022-08-12T06:13:27.922Z,3.85
2022-08-12T06:16:07.392Z,4.22
2022-08-12T06:18:34.946Z,3.95
2022-08-12T06:21:02.575Z,4.07
2022-08-12T06:23:30.569Z,4.15
2022-08-12T06:25:58.118Z,4.43
2022-08-12T06:28:25.645Z,3.87
2022-08-12T06:31:22.126Z,4.07
2022-08-12T06:33:59.620Z,3.97
2022-08-12T06:36:33.391Z,4.10
2022-08-12T06:39:01.223Z,4.53
2022-08-12T06:42:02.426Z,4.43
2022-08-12T06:44:35.262Z,4.70
2022-08-12T06:47:02.632Z,4.43
2022-08-12T06:49:34.731Z,4.75
2022-08-12T06:52:04.512Z,4.43
2022-08-12T06:54:34.682Z,4.43
2022-08-12T06:57:04.836Z,4.07
2022-08-12T06:59:50.997Z,4.53
2022-08-12T07:02:20.621Z,4.10
2022-08-12T07:04:48.224Z,4.15
2022-08-12T07:07:15.636Z,4.65
2022-08-12T07:10:05.261Z,4.72
2022-08-12T07:12:31.244Z,4.18
2022-08-12T07:14:59.476Z,3.97
2022-08-12T07:17:35.835Z,4.22
2022-08-12T07:20:06.133Z,4.35
2022-08-12T07:22:33.618Z,4.35
2022-08-12T07:25:19.568Z,4.43
2022-08-12T07:27:47.767Z,3.95
2022-08-12T07:30:15.131Z,4.37
2022-08-12T07:32:42.608Z,4.53
2022-08-12T07:35:10.285Z,4.00
2022-08-12T07:37:42.063Z,4.62
2022-08-12T07:40:11.862Z,4.18
2022-08-12T07:42:40.594Z,4.18
2022-08-12T07:45:09.472Z,4.85
2022-08-12T07:47:37.879Z,4.60
2022-08-12T07:50:09.186Z,4.43
2022-08-12T07:52:38.520Z,4.45
2022-08-12T07:55:06.450Z,4.53
2022-08-12T07:57:33.905Z,4.53
2022-08-12T08:00:03.490Z,3.92
2022-08-12T08:02:36.413Z,4.05
2022-08-12T08:05:04.564Z,3.80
2022-08-12T08:07:32.094Z,4.55
2022-08-12T08:10:00.208Z,4.53
2022-08-12T08:12:46.971Z,4.57
2022-08-12T08:15:15.591Z,4.50
2022-08-12T08:18:25.780Z,4.18
2022-08-12T08:20:54.827Z,4.82
2022-08-12T08:23:22.471Z,3.80
2022-08-12T08:26:02.199Z,4.20
2022-08-12T08:28:29.800Z,4.25
2022-08-12T08:30:57.136Z,3.95
2022-08-12T08:34:01.466Z,4.30
2022-08-12T08:36:23.691Z,4.72
2022-08-12T08:38:53.251Z,3.97
2022-08-12T08:42:16.577Z,3.97
2022-08-12T08:44:38.162Z,4.60
2022-08-12T08:47:06.650Z,4.60
2022-08-12T08:49:37.348Z,4.70
2022-08-12T08:52:06.082Z,4.10
2022-08-12T08:54:34.318Z,4.65
2022-08-12T08:57:02.263Z,4.45
2022-08-12T08:59:29.678Z,4.72
2022-08-12T09:01:57.651Z,4.22
2022-08-12T09:05:11.973Z,4.50
2022-08-12T09:07:16.864Z,4.62
2022-08-12T09:10:02.047Z,4.25
2022-08-12T09:12:55.240Z,4.37
2022-08-12T09:15:34.872Z,4.40
2022-08-12T09:18:08.934Z,4.72
2022-08-12T09:20:37.071Z,5.07
2022-08-12T09:23:08.042Z,4.82
2022-08-12T09:25:53.070Z,5.32
2022-08-12T09:28:31.109Z,5.68
2022-08-12T09:30:59.666Z,5.40
2022-08-12T09:34:26.180Z,5.10
2022-08-12T09:36:30.940Z,4.62
2022-08-12T09:40:03.189Z,5.60
2022-08-12T09:42:52.977Z,5.37
2022-08-12T09:45:18.812Z,4.80
2022-08-12T09:47:56.991Z,5.32
2022-08-12T09:50:28.114Z,5.70
2022-08-12T09:54:31.698Z,6.18
2022-08-12T09:56:56.623Z,5.03
2022-08-12T09:59:00.241Z,4.95
2022-08-12T10:01:35.771Z,4.47
2022-08-12T10:04:19.524Z,5.35
2022-08-12T10:06:54.857Z,5.75
2022-08-12T10:09:28.920Z,5.07
2022-08-12T10:12:31.325Z,5.20
2022-08-12T10:15:01.967Z,6.85
2022-08-12T10:17:29.816Z,4.82
2022-08-12T10:19:59.411Z,4.90
2022-08-12T10:22:39.981Z,5.43
2022-08-12T10:26:34.419Z,5.50
2022-08-12T10:28:34.565Z,5.50
2022-08-12T10:31:01.887Z,5.87
2022-08-12T10:33:55.061Z,5.40
2022-08-12T10:36:39.898Z,5.60
2022-08-12T10:39:44.307Z,5.12
2022-08-12T10:42:15.666Z,5.62
2022-08-12T10:44:46.860Z,6.80
2022-08-12T10:47:26.604Z,6.37
2022-08-12T10:50:28.107Z,5.97
2022-08-12T10:52:54.740Z,6.62
2022-08-12T10:55:22.435Z,6.30
2022-08-12T10:58:27.677Z,6.53
2022-08-12T11:00:55.079Z,6.25
2022-08-12T11:04:34.269Z,6.70
2022-08-12T11:07:07.639Z,5.70
2022-08-12T11:09:07.232Z,6.22
2022-08-12T11:12:35.804Z,6.05
2022-08-12T11:14:49.488Z,6.07
2022-08-12T11:17:43.944Z,6.07
2022-08-12T11:20:03.798Z,6.80
2022-08-12T11:22:32.326Z,5.97
2022-08-12T11:24:59.813Z,6.15
2022-08-12T11:27:29.476Z,5.82
2022-08-12T11:30:06.374Z,6.12
2022-08-12T11:32:38.517Z,5.78
2022-08-12T11:35:08.152Z,6.10
2022-08-12T11:37:59.459Z,5.68
2022-08-12T11:40:26.117Z,6.10
2022-08-12T11:43:19.035Z,6.43
2022-08-12T11:45:53.192Z,6.18
2022-08-12T11:50:55.337Z,6.00
2022-08-12T11:53:59.000Z,5.55
2022-08-12T11:56:11.350Z,5.72
2022-08-12T12:01:59.025Z,5.55
2022-08-12T12:02:03.412Z,5.28
2022-08-12T12:04:28.983Z,5.55
2022-08-12T12:07:07.551Z,5.35
2022-08-12T12:09:50.742Z,5.10
2022-08-12T12:12:22.533Z,5.30
2022-08-12T12:14:54.837Z,4.93
2022-08-12T12:17:24.485Z,4.87
2022-08-12T12:19:53.249Z,5.35
2022-08-12T12:22:23.738Z,5.20
2022-08-12T12:24:59.143Z,5.47
2022-08-12T12:28:04.871Z,5.20
2022-08-12T12:30:37.247Z,4.95
2022-08-12T12:33:05.907Z,5.22
2022-08-12T12:36:19.903Z,5.18
2022-08-12T12:38:21.117Z,5.18
2022-08-12T12:40:53.193Z,5.62
2022-08-12T12:43:42.522Z,5.20
2022-08-12T12:46:09.198Z,5.50
2022-08-12T12:48:36.549Z,5.60
2022-08-12T12:51:22.122Z,5.68
2022-08-12T12:54:06.710Z,5.50
2022-08-12T12:56:40.493Z,4.72
2022-08-12T12:59:55.845Z,5.93
2022-08-12T13:01:55.793Z,6.10
2022-08-12T13:04:24.664Z,5.55
2022-08-12T13:06:52.359Z,6.75
2022-08-12T13:09:22.796Z,6.15
2022-08-12T13:11:53.474Z,10.30
2022-08-12T13:14:27.975Z,10.73
2022-08-12T13:17:02.363Z,19.05
2022-08-12T13:19:38.769Z,18.25
2022-08-12T13:22:20.429Z,5.95
2022-08-12T13:24:54.555Z,8.82
2022-08-12T13:27:35.151Z,5.82
2022-08-12T13:30:06.783Z,6.00
2022-08-12T13:32:39.617Z,4.90
2022-08-12T13:35:20.148Z,5.72
2022-08-12T13:37:57.499Z,5.93
2022-08-12T13:40:29.191Z,5.53
2022-08-12T13:43:01.484Z,4.87
2022-08-12T13:45:30.280Z,5.10
2022-08-12T13:48:02.325Z,5.45
2022-08-12T13:50:36.307Z,5.32
2022-08-12T13:53:24.223Z,5.70
2022-08-12T13:56:01.654Z,5.80
2022-08-12T13:58:30.777Z,5.43
2022-08-12T14:01:05.721Z,5.62
2022-08-12T14:03:50.100Z,5.35
2022-08-12T14:06:18.231Z,10.25
2022-08-12T14:08:49.987Z,6.43
2022-08-12T14:11:19.171Z,5.82
2022-08-12T14:14:05.929Z,6.12
2022-08-12T14:16:48.740Z,5.30
2022-08-12T14:19:25.070Z,5.32
2022-08-12T14:22:00.937Z,5.70
2022-08-12T14:24:35.623Z,5.40
2022-08-12T14:27:09.181Z,6.30
2022-08-12T14:30:04.926Z,4.93
2022-08-12T14:32:35.279Z,5.62
2022-08-12T14:35:10.954Z,5.70
2022-08-12T14:37:56.073Z,5.53
2022-08-12T14:40:28.476Z,5.00
2022-08-12T14:42:59.758Z,5.00
2022-08-12T14:45:45.227Z,5.12
2022-08-12T14:48:18.700Z,5.60
2022-08-12T14:51:03.307Z,5.68
2022-08-12T14:59:56.477Z,4.95
2022-08-12T15:02:20.600Z,5.40
2022-08-12T15:04:53.272Z,5.22
2022-08-12T15:07:33.609Z,4.90
2022-08-12T15:10:09.375Z,4.93
2022-08-12T15:12:40.555Z,5.32
2022-08-12T15:15:10.274Z,5.72
2022-08-12T15:17:38.842Z,5.53
2022-08-12T15:20:31.386Z,5.62
2022-08-12T15:22:56.536Z,5.45
2022-08-12T15:25:28.872Z,5.70
2022-08-12T15:28:10.868Z,5.70
2022-08-12T15:30:52.203Z,5.25
2022-08-12T15:33:24.276Z,6.07
2022-08-12T15:35:53.372Z,6.15
2022-08-12T15:38:31.203Z,5.35
2022-08-12T15:41:00.057Z,5.32
2022-08-12T15:43:51.716Z,4.80
2022-08-12T15:46:17.075Z,4.93
2022-08-12T15:48:47.169Z,5.10
2022-08-12T15:51:57.215Z,4.90
2022-08-12T15:54:30.737Z,5.03
2022-08-12T15:57:10.881Z,4.93
2022-08-12T16:00:00.070Z,5.05
2022-08-12T16:02:50.545Z,4.87
2022-08-12T16:06:19.435Z,4.68
2022-08-12T16:08:17.159Z,5.55
2022-08-12T16:10:47.652Z,4.80
2022-08-12T16:13:18.247Z,5.18
2022-08-12T16:18:33.361Z,5.65
2022-08-12T16:21:01.717Z,5.40
2022-08-12T16:23:51.791Z,5.00
2022-08-12T16:26:20.437Z,5.30
2022-08-12T16:28:56.150Z,4.87
2022-08-12T16:31:24.722Z,5.53
2022-08-12T16:34:00.126Z,5.78
2022-08-12T16:36:31.311Z,5.10
2022-08-12T16:39:01.769Z,5.53
2022-08-12T16:41:39.826Z,5.57
2022-08-12T16:44:09.130Z,5.80
2022-08-12T16:46:37.796Z,6.32
2022-08-12T16:49:12.898Z,5.75
2022-08-12T16:51:46.972Z,5.97
2022-08-12T16:54:19.058Z,5.30
2022-08-12T16:56:54.473Z,5.70
2022-08-12T16:59:30.588Z,5.20
2022-08-12T17:01:58.945Z,5.65
2022-08-12T17:04:28.489Z,5.97
2022-08-12T17:06:56.053Z,5.30
2022-08-12T17:09:25.427Z,5.80
2022-08-12T17:11:52.886Z,5.32
2022-08-12T17:14:24.701Z,5.87
2022-08-12T17:16:55.050Z,5.45
2022-08-12T17:20:28.556Z,5.53
2022-08-12T17:22:15.002Z,5.55
2022-08-12T17:24:43.975Z,5.50
2022-08-12T17:27:18.404Z,5.78
2022-08-12T17:30:03.200Z,5.93
2022-08-12T17:32:34.970Z,6.12
2022-08-12T17:35:21.038Z,5.50
2022-08-12T17:37:48.867Z,5.57
2022-08-12T17:40:35.974Z,5.72
2022-08-12T17:43:56.345Z,6.32
2022-08-12T17:45:58.888Z,5.62
2022-08-12T17:48:34.954Z,5.85
2022-08-12T17:51:15.767Z,5.80
2022-08-12T17:54:11.416Z,6.15
2022-08-12T17:56:36.793Z,5.87
2022-08-12T17:59:07.356Z,5.50
2022-08-12T18:01:36.557Z,5.18
2022-08-12T18:04:21.283Z,6.40
2022-08-12T18:06:51.229Z,5.57
2022-08-12T18:09:20.489Z,5.53
2022-08-12T18:12:08.163Z,5.60
2022-08-12T18:14:40.924Z,5.05
2022-08-12T18:17:09.622Z,5.80
2022-08-12T18:20:04.927Z,5.55
2022-08-12T18:22:30.895Z,5.87
2022-08-12T18:25:02.594Z,5.80
2022-08-12T18:27:43.874Z,5.80
2022-08-12T18:30:20.904Z,5.93
2022-08-12T18:33:04.692Z,5.05
2022-08-12T18:38:22.160Z,5.75
2022-08-12T18:41:09.757Z,5.75
2022-08-12T18:43:59.321Z,6.07
2022-08-12T18:46:48.787Z,6.25
2022-08-12T18:52:04.168Z,7.12
2022-08-12T18:54:41.579Z,6.95
2022-08-12T18:57:20.023Z,6.53
2022-08-12T19:00:07.613Z,6.50
2022-08-12T19:02:40.355Z,5.60
2022-08-12T19:05:12.169Z,6.22
2022-08-12T19:08:00.691Z,6.45
2022-08-12T19:10:30.312Z,7.10
2022-08-12T19:13:23.501Z,6.97
2022-08-12T19:15:57.843Z,6.50
2022-08-12T19:18:30.145Z,6.60
2022-08-12T19:21:00.434Z,6.47
2022-08-12T19:23:35.515Z,6.30
2022-08-12T19:26:04.411Z,6.45
2022-08-12T19:28:35.566Z,5.95
2022-08-12T19:31:55.602Z,6.03
2022-08-12T19:37:27.128Z,6.55
2022-08-12T19:40:10.317Z,5.70
2022-08-12T19:42:53.877Z,5.87
2022-08-12T19:45:41.776Z,5.55
2022-08-12T19:48:16.762Z,5.75
2022-08-12T19:50:50.238Z,5.57
2022-08-12T19:53:24.117Z,6.07
2022-08-12T19:55:55.343Z,5.43
2022-08-12T19:58:23.582Z,6.32
2022-08-12T20:00:54.740Z,5.95
2022-08-12T20:03:39.380Z,5.70
2022-08-12T20:06:13.803Z,6.65
2022-08-12T20:08:48.775Z,5.35
2022-08-12T20:12:11.726Z,5.70
2022-08-12T20:14:05.432Z,5.20
2022-08-12T20:16:57.464Z,6.03
2022-08-12T20:19:52.754Z,6.12
2022-08-12T20:22:24.955Z,5.28
2022-08-12T20:25:00.877Z,5.95
2022-08-12T20:28:02.730Z,5.82
2022-08-12T20:30:52.459Z,6.03
2022-08-12T20:33:17.872Z,5.95
2022-08-12T20:36:06.725Z,6.12
2022-08-12T20:38:39.653Z,6.53
2022-08-12T20:41:17.616Z,6.20
2022-08-12T20:43:50.451Z,6.40
2022-08-12T20:46:19.169Z,5.72
2022-08-12T20:48:46.956Z,6.75
2022-08-12T20:51:23.071Z,6.28
2022-08-12T20:53:57.646Z,5.60
2022-08-12T20:56:33.492Z,5.90
2022-08-12T20:59:14.885Z,6.22
2022-08-12T21:01:48.522Z,5.93
2022-08-12T21:04:36.008Z,5.40
2022-08-12T21:07:09.051Z,5.90
2022-08-12T21:09:44.453Z,5.43
2022-08-12T21:12:27.524Z,6.15
2022-08-12T21:15:17.363Z,6.05
2022-08-12T21:18:09.623Z,5.43
2022-08-12T21:20:37.035Z,5.40
2022-08-12T21:23:06.467Z,6.90
2022-08-12T21:25:44.284Z,5.40
2022-08-12T21:28:14.346Z,5.72
2022-08-12T21:31:11.722Z,5.05
2022-08-12T21:33:58.910Z,5.70
2022-08-12T21:36:34.160Z,5.75
2022-08-12T21:39:20.171Z,5.57
2022-08-12T21:41:52.752Z,5.60
2022-08-12T21:44:24.395Z,5.97
2022-08-12T21:47:20.488Z,5.50
2022-08-12T21:50:03.074Z,5.25
2022-08-12T21:52:36.175Z,5.30
2022-08-12T21:55:08.316Z,6.15
2022-08-12T21:57:51.196Z,6.10
2022-08-12T22:00:33.189Z,4.97
2022-08-12T22:03:25.128Z,4.87
2022-08-12T22:06:26.454Z,5.60
2022-08-12T22:09:02.154Z,5.43
2022-08-12T22:11:42.431Z,5.80
2022-08-12T22:14:21.988Z,5.75
2022-08-12T22:16:52.935Z,5.95
2022-08-12T22:19:21.492Z,5.53
2022-08-12T22:21:54.619Z,5.65
2022-08-12T22:24:26.275Z,5.50
2022-08-12T22:27:07.938Z,5.00
2022-08-12T22:30:07.162Z,5.28
2022-08-12T22:32:38.731Z,5.32
2022-08-12T22:35:29.021Z,5.32
2022-08-12T22:38:08.233Z,5.22
2022-08-12T22:40:39.662Z,5.80
2022-08-12T22:43:30.114Z,5.40
2022-08-12T22:46:16.530Z,5.37
2022-08-12T22:48:50.488Z,5.68
2022-08-12T22:51:22.374Z,5.10
2022-08-12T22:53:54.840Z,5.50
2022-08-12T22:56:31.027Z,5.57
2022-08-12T22:59:02.872Z,4.80
2022-08-12T23:02:01.330Z,5.40
2022-08-12T23:04:27.544Z,5.75
2022-08-12T23:06:56.740Z,5.60
2022-08-12T23:09:34.721Z,5.62
2022-08-12T23:12:37.407Z,5.80
2022-08-12T23:15:09.096Z,4.72
2022-08-12T23:17:40.077Z,5.55
2022-08-12T23:20:10.965Z,5.93
2022-08-12T23:22:40.085Z,5.78
2022-08-12T23:25:18.931Z,5.22
2022-08-12T23:28:30.199Z,5.90
2022-08-12T23:30:58.719Z,6.50
2022-08-12T23:34:01.819Z,5.78
2022-08-12T23:36:39.384Z,6.40
2022-08-12T23:40:14.560Z,5.62
2022-08-12T23:42:17.547Z,6.30
2022-08-12T23:44:48.564Z,5.40
2022-08-12T23:47:21.418Z,6.65
2022-08-12T23:49:57.959Z,6.45
2022-08-12T23:52:33.930Z,5.90
2022-08-12T23:55:24.808Z,5.90
2022-08-12T23:58:21.795Z,6.37
